Time;durP1;ratioP1;P1;durP2;ratioP2;P2;SDS_P1;SDS_P2;PMS_P1;PMS_P2;Temp;Humidity;BMP_temperature;BMP_pressure;BME280_temperature;BME280_humidity;BME280_pressure;Samples;Min_cycle;Max_cycle;Signal;HPM_P1;HPM_P2
2021/09/01 04:32:13;;;;;;;15.83;11.80;;;9.60;99.90;;;;;;5411237;22;20474;-78
2021/09/01 04:34:39;;;;;;;16.20;11.60;;;9.50;99.90;;;;;;5030555;28;20820;-78
2021/09/01 04:37:04;;;;;;;18.80;11.20;;;9.50;99.90;;;;;;4997240;28;20246;-78
2021/09/01 04:39:30;;;;;;;18.43;10.80;;;9.50;99.90;;;;;;5008606;28;20184;-78
2021/09/01 04:41:56;;;;;;;15.83;11.23;;;9.50;99.90;;;;;;5013245;28;20539;-78
2021/09/01 04:44:21;;;;;;;14.17;10.57;;;9.50;99.90;;;;;;5013076;28;20180;-77
2021/09/01 04:46:47;;;;;;;13.57;10.70;;;9.50;99.90;;;;;;5012994;28;20179;-78
2021/09/01 04:49:12;;;;;;;16.93;11.70;;;9.50;99.90;;;;;;5012673;28;20637;-78
2021/09/01 04:51:38;;;;;;;17.67;11.77;;;9.50;99.90;;;;;;5013013;28;20204;-77
2021/09/01 04:54:04;;;;;;;17.20;10.60;;;9.50;99.90;;;;;;5012939;28;20704;-79
2021/09/01 04:56:29;;;;;;;15.90;10.47;;;9.50;99.90;;;;;;5013057;28;20181;-78
2021/09/01 04:58:55;;;;;;;17.07;10.97;;;9.50;99.90;;;;;;5013361;28;20276;-78
2021/09/01 05:01:20;;;;;;;14.93;11.33;;;9.50;99.90;;;;;;5013140;28;20201;-78
2021/09/01 05:03:46;;;;;;;17.37;11.67;;;9.50;99.90;;;;;;5013482;28;20684;-79
2021/09/01 05:06:11;;;;;;;15.30;11.00;;;9.50;99.90;;;;;;5012956;28;20191;-79
2021/09/01 05:08:37;;;;;;;13.00;10.93;;;9.50;99.90;;;;;;5013762;28;20255;-79
2021/09/01 05:11:03;;;;;;;16.70;12.53;;;9.60;99.90;;;;;;5013045;28;20202;-78
2021/09/01 05:13:28;;;;;;;16.70;12.10;;;9.60;99.90;;;;;;4995669;28;20196;-78
2021/09/01 05:15:54;;;;;;;14.93;11.23;;;9.70;99.90;;;;;;5012921;28;20538;-78
2021/09/01 05:18:19;;;;;;;15.80;11.63;;;9.80;99.90;;;;;;5014122;28;20177;-79
2021/09/01 05:20:48;;;;;;;18.63;12.00;;;9.90;99.90;;;;;;5013240;28;20264;-79
2021/09/01 05:23:16;;;;;;;19.63;13.13;;;9.90;99.90;;;;;;5013492;28;20183;-79
2021/09/01 05:25:58;;;;;;;16.70;12.70;;;10.10;99.90;;;;;;5013754;28;20420;-78
2021/09/01 05:28:27;;;;;;;21.80;14.20;;;10.20;99.90;;;;;;5013746;28;20433;-79
2021/09/01 05:30:53;;;;;;;20.53;12.90;;;10.30;99.90;;;;;;5014903;28;20502;-78
2021/09/01 05:33:22;;;;;;;20.37;14.17;;;10.30;99.90;;;;;;5017430;28;20432;-78
2021/09/01 05:35:49;;;;;;;15.97;12.60;;;10.40;99.90;;;;;;5017404;28;20506;-79
2021/09/01 05:38:19;;;;;;;19.47;12.53;;;10.50;99.90;;;;;;4999965;28;20413;-79
2021/09/01 05:40:50;;;;;;;16.20;12.03;;;10.60;99.90;;;;;;5017637;28;20444;-79
2021/09/01 05:43:18;;;;;;;15.13;12.00;;;10.60;99.90;;;;;;5017317;28;20412;-78
2021/09/01 05:45:48;;;;;;;22.77;13.57;;;10.70;99.90;;;;;;5017017;28;20917;-79
2021/09/01 05:48:14;;;;;;;20.50;13.30;;;10.80;99.90;;;;;;4998703;28;20435;-79
2021/09/01 05:50:42;;;;;;;20.30;13.83;;;10.90;99.90;;;;;;5016266;28;20443;-79
2021/09/01 05:53:09;;;;;;;21.17;15.23;;;11.00;99.90;;;;;;5016025;28;20409;-79
2021/09/01 05:55:38;;;;;;;19.90;14.77;;;11.20;99.90;;;;;;5016001;28;20431;-79
2021/09/01 05:58:04;;;;;;;20.67;14.50;;;11.30;99.90;;;;;;5016279;28;20476;-79
2021/09/01 06:00:36;;;;;;;23.33;14.60;;;11.30;99.90;;;;;;5016080;28;20413;-79
2021/09/01 06:03:09;;;;;;;21.10;14.30;;;11.40;99.90;;;;;;5016052;28;20190;-79
2021/09/01 06:05:37;;;;;;;19.07;12.43;;;11.50;99.90;;;;;;5016731;28;20421;-79
2021/09/01 06:08:06;;;;;;;23.43;13.43;;;11.60;99.90;;;;;;4999760;28;20460;-79
2021/09/01 06:10:33;;;;;;;17.83;13.10;;;11.70;99.90;;;;;;5018217;28;20456;-79
2021/09/01 06:13:05;;;;;;;26.97;15.23;;;11.80;99.90;;;;;;5017571;28;20791;-79
2021/09/01 06:15:31;;;;;;;22.20;12.93;;;11.90;99.90;;;;;;5000226;28;20476;-79
2021/09/01 06:17:58;;;;;;;24.53;15.30;;;12.00;99.90;;;;;;5017240;28;20444;-79
2021/09/01 06:20:24;;;;;;;29.20;17.00;;;12.10;99.90;;;;;;5017271;28;20413;-78
2021/09/01 06:22:50;;;;;;;45.50;17.97;;;12.10;99.90;;;;;;5017265;28;20410;-80
2021/09/01 06:25:15;;;;;;;32.80;18.20;;;12.10;99.90;;;;;;5015315;28;20186;-78
2021/09/01 06:27:41;;;;;;;22.17;15.90;;;12.20;99.90;;;;;;5015638;28;20218;-78
2021/09/01 06:30:07;;;;;;;28.23;18.10;;;12.30;99.90;;;;;;5015107;28;20183;-78
2021/09/01 06:32:32;;;;;;;89.13;19.30;;;12.30;99.90;;;;;;4997681;28;20304;-77
2021/09/01 06:34:58;;;;;;;54.03;17.80;;;12.40;99.90;;;;;;5014834;28;20732;-78
2021/09/01 06:37:24;;;;;;;92.30;20.90;;;12.40;99.90;;;;;;5015247;28;20655;-78
2021/09/01 06:39:51;;;;;;;56.43;20.47;;;12.40;99.90;;;;;;5014966;28;20531;-78
2021/09/01 06:42:18;;;;;;;39.73;19.53;;;12.40;99.90;;;;;;4997114;28;20714;-78
2021/09/01 06:44:44;;;;;;;42.10;18.50;;;12.50;99.90;;;;;;5014915;28;20456;-78
2021/09/01 06:47:09;;;;;;;30.83;16.03;;;12.50;99.90;;;;;;5015096;28;20446;-77
2021/09/01 06:49:35;;;;;;;72.70;17.27;;;12.60;99.90;;;;;;5015022;28;20424;-78
2021/09/01 06:52:00;;;;;;;46.90;18.03;;;12.60;99.90;;;;;;5015165;28;20245;-80
2021/09/01 06:54:26;;;;;;;27.23;16.50;;;12.70;99.90;;;;;;5014997;28;20559;-80
2021/09/01 06:56:52;;;;;;;33.90;17.53;;;12.80;99.90;;;;;;5015881;28;20185;-84
2021/09/01 06:59:17;;;;;;;39.73;18.30;;;12.90;99.90;;;;;;5017212;28;20175;-82
2021/09/01 07:01:43;;;;;;;33.73;16.30;;;12.90;99.90;;;;;;5016436;28;20555;-82
2021/09/01 07:04:08;;;;;;;29.83;18.57;;;13.00;99.90;;;;;;5015486;28;20179;-80
2021/09/01 07:06:34;;;;;;;27.83;17.17;;;13.10;99.90;;;;;;5016193;28;20597;-80
2021/09/01 07:09:00;;;;;;;30.47;18.47;;;13.20;99.90;;;;;;5015414;28;20232;-80
2021/09/01 07:11:25;;;;;;;28.00;18.80;;;13.30;99.90;;;;;;5015609;28;20198;-80
2021/09/01 07:13:51;;;;;;;38.10;17.23;;;13.40;99.90;;;;;;5015555;28;20175;-80
2021/09/01 07:16:16;;;;;;;29.13;17.73;;;13.40;99.90;;;;;;5016247;28;20210;-80
2021/09/01 07:18:42;;;;;;;32.30;18.07;;;13.50;99.90;;;;;;5014496;28;20228;-80
2021/09/01 07:21:08;;;;;;;34.47;20.30;;;13.60;99.90;;;;;;5014464;28;20206;-80
2021/09/01 07:23:34;;;;;;;27.97;18.07;;;13.70;99.90;;;;;;5014476;28;20541;-80
2021/09/01 07:25:59;;;;;;;31.20;20.30;;;13.80;99.90;;;;;;5014024;28;20924;-80
2021/09/01 07:28:26;;;;;;;35.63;20.60;;;13.90;99.90;;;;;;5013944;28;20179;-80
2021/09/01 07:30:51;;;;;;;35.37;20.27;;;14.00;99.90;;;;;;5013778;28;20667;-80
2021/09/01 07:33:17;;;;;;;43.87;21.17;;;14.10;99.90;;;;;;5013926;28;20436;-80
2021/09/01 07:35:45;;;;;;;34.63;21.00;;;14.10;99.90;;;;;;5013836;28;20572;-80
2021/09/01 07:38:11;;;;;;;31.47;19.27;;;14.00;99.90;;;;;;5014040;28;20171;-80
2021/09/01 07:40:37;;;;;;;34.47;22.37;;;14.00;99.90;;;;;;5013903;28;20449;-79
2021/09/01 07:43:02;;;;;;;29.40;20.70;;;14.10;99.90;;;;;;5013751;28;20178;-80
2021/09/01 07:45:30;;;;;;;31.67;20.57;;;14.30;99.90;;;;;;5013679;28;20178;-80
2021/09/01 07:47:56;;;;;;;34.83;21.60;;;14.30;99.90;;;;;;5013421;28;20175;-80
2021/09/01 07:50:31;;;;;;;29.40;20.27;;;14.50;99.90;;;;;;5013999;28;20510;-80
2021/09/01 07:52:57;;;;;;;33.23;19.43;;;14.70;99.90;;;;;;5013511;28;21065;-80
2021/09/01 07:55:23;;;;;;;31.27;20.30;;;14.60;99.90;;;;;;5012462;28;20548;-80
2021/09/01 07:57:49;;;;;;;31.50;21.30;;;14.70;99.90;;;;;;5014080;28;20201;-80
2021/09/01 08:00:15;;;;;;;31.07;22.23;;;14.90;99.90;;;;;;5015903;28;20489;-80
2021/09/01 08:02:41;;;;;;;32.00;19.90;;;14.80;99.90;;;;;;5015768;28;20201;-80
2021/09/01 08:05:07;;;;;;;26.50;19.93;;;15.00;99.90;;;;;;5015250;28;20413;-80
2021/09/01 08:07:34;;;;;;;22.80;19.07;;;15.40;99.90;;;;;;5016684;28;20452;-80
2021/09/01 08:10:00;;;;;;;27.50;20.17;;;15.80;99.90;;;;;;5016307;28;20426;-80
2021/09/01 08:12:26;;;;;;;22.80;18.23;;;16.10;99.90;;;;;;5000118;28;20780;-80
2021/09/01 08:14:51;;;;;;;26.13;19.83;;;16.30;99.90;;;;;;5017129;28;20206;-81
2021/09/01 08:17:17;;;;;;;30.27;20.17;;;16.30;99.90;;;;;;5016446;28;20445;-83
2021/09/01 08:19:45;;;;;;;27.20;20.37;;;16.50;99.90;;;;;;5016910;28;20171;-82
2021/09/01 08:22:12;;;;;;;28.47;22.40;;;16.90;99.90;;;;;;5018645;28;20201;-82
2021/09/01 08:24:38;;;;;;;25.90;19.03;;;17.50;99.90;;;;;;5017999;28;20949;-83
2021/09/01 08:27:09;;;;;;;26.90;19.40;;;18.30;99.90;;;;;;5021340;28;20499;-83
2021/09/01 08:29:35;;;;;;;24.00;18.00;;;18.90;99.90;;;;;;5017130;28;20485;-83
2021/09/01 08:32:01;;;;;;;25.77;17.50;;;19.20;99.90;;;;;;5019289;28;20453;-83
2021/09/01 08:34:27;;;;;;;28.40;17.00;;;19.60;99.90;;;;;;5016656;28;20481;-83
2021/09/01 08:36:53;;;;;;;32.67;18.93;;;19.90;99.90;;;;;;5018079;28;20428;-83
2021/09/01 08:39:19;;;;;;;25.53;17.70;;;20.20;99.90;;;;;;5016859;28;20190;-83
2021/09/01 08:41:46;;;;;;;24.43;17.70;;;20.30;99.90;;;;;;4999336;28;20744;-83
2021/09/01 08:44:11;;;;;;;27.67;19.63;;;20.50;99.90;;;;;;5018532;28;20418;-83
2021/09/01 08:46:38;;;;;;;23.80;18.30;;;20.60;99.90;;;;;;5017612;28;20460;-83
2021/09/01 08:49:04;;;;;;;22.43;16.70;;;20.60;99.90;;;;;;5015614;28;20237;-83
2021/09/01 08:51:30;;;;;;;22.17;18.23;;;20.80;99.90;;;;;;5017018;28;20430;-83
2021/09/01 08:53:56;;;;;;;21.80;17.17;;;21.00;99.90;;;;;;4998769;28;20525;-83
2021/09/01 08:56:23;;;;;;;23.10;17.17;;;21.00;99.90;;;;;;5000568;28;20433;-82
2021/09/01 08:58:49;;;;;;;22.17;18.17;;;21.30;99.90;;;;;;5018131;28;20421;-83
2021/09/01 09:01:55;;;;;;;22.80;17.23;;;21.60;99.90;;;;;;4999653;28;20433;-82
2021/09/01 09:04:29;;;;;;;21.30;16.03;;;22.00;99.90;;;;;;4936086;29;20181;-82
2021/09/01 09:07:04;;;;;;;19.13;15.83;;;22.10;99.90;;;;;;4935539;29;20416;-82
2021/09/01 09:09:38;;;;;;;22.77;15.83;;;22.10;99.90;;;;;;4983788;28;20501;-82
2021/09/01 09:12:06;;;;;;;16.77;14.90;;;22.20;99.90;;;;;;5016226;28;20952;-84
2021/09/01 09:14:32;;;;;;;16.90;13.33;;;22.50;99.90;;;;;;5016023;28;20476;-82
2021/09/01 09:17:05;;;;;;;16.30;13.60;;;22.70;99.90;;;;;;5015885;28;20444;-82
2021/09/01 09:19:50;;;;;;;16.53;13.50;;;22.90;99.90;;;;;;5015800;28;20417;-83
2021/09/01 09:22:27;;;;;;;15.50;12.73;;;22.90;99.90;;;;;;5014804;28;20588;-82
2021/09/01 09:25:27;;;;;;;16.10;13.17;;;23.20;99.90;;;;;;5012951;28;20520;-82
2021/09/01 09:28:02;;;;;;;19.20;14.27;;;23.60;99.90;;;;;;4997978;28;20441;-83
2021/09/01 09:30:45;;;;;;;20.23;12.40;;;23.60;99.90;;;;;;5015490;28;20957;-82
2021/09/01 09:33:15;;;;;;;13.57;11.20;;;24.00;99.90;;;;;;5020557;28;20409;-82
2021/09/01 09:35:53;;;;;;;13.30;11.97;;;24.30;99.90;;;;;;4993419;28;20614;-81
2021/09/01 09:38:42;;;;;;;12.77;10.50;;;24.60;99.90;;;;;;5009810;28;20797;-83
2021/09/01 09:41:22;;;;;;;16.53;11.70;;;24.70;99.90;;;;;;5015882;28;20437;-82
2021/09/01 09:43:54;;;;;;;12.20;10.67;;;24.90;99.90;;;;;;5015699;28;20413;-83
2021/09/01 09:46:20;;;;;;;12.33;10.47;;;25.30;99.90;;;;;;5015575;28;20429;-82
2021/09/01 09:48:47;;;;;;;13.03;10.50;;;25.40;99.90;;;;;;5015236;28;20416;-83
2021/09/01 09:51:34;;;;;;;9.77;8.60;;;25.90;99.90;;;;;;5015907;28;20532;-83
2021/09/01 09:54:19;;;;;;;8.87;7.27;;;25.90;99.90;;;;;;5014796;28;20417;-82
2021/09/01 09:56:46;;;;;;;7.97;6.57;;;25.90;99.90;;;;;;5015344;28;20775;-83
2021/09/01 09:59:22;;;;;;;7.93;7.13;;;26.00;99.90;;;;;;5014216;28;20895;-82
2021/09/01 10:01:49;;;;;;;9.03;7.00;;;26.00;99.90;;;;;;4997203;28;20972;-83
2021/09/01 10:04:15;;;;;;;8.60;7.20;;;26.20;99.90;;;;;;5015172;28;20422;-83
2021/09/01 10:06:42;;;;;;;10.70;6.97;;;26.30;99.90;;;;;;5015068;28;20432;-83
2021/09/01 10:09:08;;;;;;;6.40;5.57;;;26.40;99.90;;;;;;4995918;28;20457;-82
2021/09/01 10:11:37;;;;;;;7.20;6.30;;;26.80;99.90;;;;;;5014624;28;20441;-82
2021/09/01 10:14:03;;;;;;;7.30;6.70;;;27.10;99.90;;;;;;5016031;28;20425;-82
2021/09/01 10:16:41;;;;;;;8.80;6.77;;;27.40;99.90;;;;;;5015834;28;20480;-82
2021/09/01 10:19:30;;;;;;;6.90;6.30;;;27.50;99.90;;;;;;5001095;28;20512;-83
2021/09/01 10:22:02;;;;;;;7.17;6.47;;;27.00;99.90;;;;;;5019290;28;20437;-82
2021/09/01 10:24:37;;;;;;;7.60;6.90;;;27.00;99.90;;;;;;5018337;28;20409;-82
2021/09/01 10:27:21;;;;;;;7.23;6.47;;;26.70;99.90;;;;;;5017965;28;20413;-82
2021/09/01 10:30:00;;;;;;;7.73;6.80;;;27.10;99.90;;;;;;5016914;28;20476;-83
2021/09/01 10:32:42;;;;;;;9.27;7.40;;;27.20;99.90;;;;;;5015292;28;20541;-82
2021/09/01 10:35:11;;;;;;;9.33;6.47;;;26.70;99.90;;;;;;5015038;28;20903;-83
2021/09/01 10:37:56;;;;;;;5.90;4.33;;;26.50;99.90;;;;;;5015495;28;20437;-83
2021/09/01 10:40:21;;;;;;;4.43;4.03;;;26.30;99.90;;;;;;4997786;28;20492;-83
2021/09/01 10:42:54;;;;;;;4.87;4.50;;;26.00;99.90;;;;;;5015095;28;20830;-83
2021/09/01 10:45:41;;;;;;;4.27;3.83;;;26.00;99.90;;;;;;5014987;28;20182;-83
2021/09/01 10:48:09;;;;;;;5.60;4.50;;;26.10;99.90;;;;;;5014843;28;20441;-82
2021/09/01 10:50:36;;;;;;;7.60;4.57;;;26.40;99.90;;;;;;5015411;28;20429;-82
2021/09/01 10:53:07;;;;;;;6.90;4.60;;;26.90;99.90;;;;;;4997707;28;20976;-83
2021/09/01 10:55:45;;;;;;;4.13;3.73;;;27.20;99.90;;;;;;5015032;28;20453;-82
2021/09/01 10:58:15;;;;;;;5.57;5.07;;;27.30;99.90;;;;;;5015469;28;20500;-83
2021/09/01 11:00:41;;;;;;;5.20;4.53;;;27.30;99.90;;;;;;5014962;28;20996;-82
2021/09/01 11:03:06;;;;;;;10.40;5.70;;;27.00;99.90;;;;;;5016038;28;20452;-81
2021/09/01 11:05:32;;;;;;;4.47;4.07;;;26.20;99.90;;;;;;5015527;28;20449;-82
2021/09/01 11:07:58;;;;;;;5.60;5.07;;;25.70;99.90;;;;;;4998111;28;20187;-82
2021/09/01 11:10:23;;;;;;;5.40;4.40;;;25.80;99.90;;;;;;5014808;28;20175;-82
2021/09/01 11:13:00;;;;;;;6.90;6.07;;;25.80;99.90;;;;;;5015225;28;20236;-83
2021/09/01 11:15:27;;;;;;;4.47;4.07;;;26.10;99.90;;;;;;4997237;28;20586;-83
2021/09/01 11:18:08;;;;;;;5.10;4.67;;;26.30;99.90;;;;;;5015214;28;20417;-82
2021/09/01 11:20:35;;;;;;;5.40;4.90;;;26.00;99.90;;;;;;5014866;28;20444;-83
2021/09/01 11:23:02;;;;;;;6.83;5.00;;;25.20;99.90;;;;;;5014549;28;20405;-82
2021/09/01 11:25:29;;;;;;;6.00;4.57;;;25.20;99.90;;;;;;5014650;28;20413;-82
2021/09/01 11:27:57;;;;;;;6.83;4.80;;;25.20;99.90;;;;;;5014732;28;20532;-82
2021/09/01 11:30:33;;;;;;;6.57;4.77;;;25.50;99.90;;;;;;5014323;28;20417;-84
2021/09/01 11:32:59;;;;;;;10.23;4.60;;;25.60;99.90;;;;;;5014226;28;20433;-83
2021/09/01 11:35:27;;;;;;;8.00;5.03;;;25.10;99.90;;;;;;5014013;28;20461;-82
2021/09/01 11:38:05;;;;;;;5.33;4.80;;;24.50;99.90;;;;;;5014613;28;20448;-82
2021/09/01 11:40:34;;;;;;;5.83;5.07;;;24.20;99.90;;;;;;5014590;28;20600;-84
2021/09/01 11:43:00;;;;;;;8.87;6.07;;;23.70;99.90;;;;;;5014235;28;20414;-82
2021/09/01 11:45:26;;;;;;;5.50;5.10;;;23.70;99.90;;;;;;5014329;28;20426;-83
2021/09/01 11:47:51;;;;;;;5.43;4.93;;;24.00;99.90;;;;;;5014132;28;20221;-82
2021/09/01 11:50:18;;;;;;;7.43;4.77;;;23.90;99.90;;;;;;5015993;28;20179;-83
2021/09/01 11:52:51;;;;;;;6.00;4.03;;;23.70;99.90;;;;;;5016346;28;20620;-84
2021/09/01 11:55:21;;;;;;;6.53;5.10;;;23.40;99.90;;;;;;5016473;28;20583;-83
2021/09/01 11:57:47;;;;;;;5.00;4.60;;;23.20;99.90;;;;;;4999004;28;20428;-83
2021/09/01 12:00:13;;;;;;;5.87;5.23;;;22.90;99.90;;;;;;5016161;28;20417;-82
2021/09/01 12:02:41;;;;;;;8.30;5.37;;;22.70;99.90;;;;;;5016273;28;20185;-83
2021/09/01 12:05:07;;;;;;;6.00;5.40;;;22.70;99.90;;;;;;4997631;28;20429;-80
2021/09/01 12:07:37;;;;;;;6.03;4.80;;;22.70;99.90;;;;;;5016881;28;20484;-78
2021/09/01 12:10:08;;;;;;;5.30;4.90;;;22.90;99.90;;;;;;5015754;28;20517;-78
2021/09/01 12:12:41;;;;;;;7.60;5.30;;;23.00;99.90;;;;;;5015617;28;20437;-79
2021/09/01 12:15:12;;;;;;;5.10;4.60;;;23.10;99.90;;;;;;5015924;28;20515;-79
2021/09/01 12:17:38;;;;;;;6.27;5.67;;;22.90;99.90;;;;;;5016759;28;20449;-79
2021/09/01 12:20:05;;;;;;;5.10;4.60;;;22.90;99.90;;;;;;5015877;28;20923;-80
2021/09/01 12:22:37;;;;;;;5.23;4.67;;;23.00;99.90;;;;;;5015998;28;20911;-79
2021/09/01 12:25:07;;;;;;;4.77;4.33;;;23.20;99.90;;;;;;5016365;28;20747;-79
2021/09/01 12:27:38;;;;;;;5.60;5.10;;;23.40;99.90;;;;;;4999296;28;20429;-80
2021/09/01 12:30:07;;;;;;;4.80;4.50;;;23.70;99.90;;;;;;5016925;28;20409;-79
2021/09/01 12:32:33;;;;;;;5.17;4.73;;;23.70;99.90;;;;;;5015191;28;20976;-78
2021/09/01 12:35:02;;;;;;;4.20;3.87;;;23.40;99.90;;;;;;5015449;28;20469;-79
2021/09/01 12:37:31;;;;;;;4.70;4.30;;;23.40;99.90;;;;;;5015879;28;20785;-78
2021/09/01 12:40:04;;;;;;;4.50;4.10;;;23.60;99.90;;;;;;5014865;28;20414;-78
2021/09/01 12:42:43;;;;;;;5.27;4.37;;;23.50;99.90;;;;;;5014590;28;20441;-79
2021/09/01 12:45:15;;;;;;;6.13;3.87;;;23.50;99.90;;;;;;5014688;28;20422;-79
2021/09/01 12:48:00;;;;;;;3.97;3.57;;;23.30;99.90;;;;;;5013673;28;20417;-80
2021/09/01 12:50:31;;;;;;;5.70;4.33;;;23.50;99.90;;;;;;5013682;28;20468;-79
2021/09/01 12:52:57;;;;;;;4.90;4.30;;;23.70;99.90;;;;;;4995269;28;20433;-78
2021/09/01 12:55:32;;;;;;;5.60;4.27;;;23.70;99.90;;;;;;5013035;28;20453;-80
2021/09/01 12:57:58;;;;;;;4.33;3.77;;;23.30;99.90;;;;;;4995436;28;20496;-79
2021/09/01 13:00:24;;;;;;;5.87;4.50;;;23.10;99.90;;;;;;4995265;28;20504;-80
2021/09/01 13:02:50;;;;;;;3.63;3.43;;;23.10;99.90;;;;;;5012550;28;20850;-77
2021/09/01 13:05:19;;;;;;;5.17;3.87;;;22.90;99.90;;;;;;5012428;28;20182;-77
2021/09/01 13:07:46;;;;;;;6.33;4.67;;;22.90;99.90;;;;;;5012792;28;20550;-78
2021/09/01 13:10:12;;;;;;;3.80;3.50;;;22.90;99.90;;;;;;5012559;28;20961;-77
2021/09/01 13:12:38;;;;;;;3.77;3.47;;;22.80;99.90;;;;;;5012562;28;20776;-78
2021/09/01 13:15:05;;;;;;;10.43;4.10;;;22.90;99.90;;;;;;5012308;28;20560;-79
2021/09/01 13:17:31;;;;;;;8.00;4.30;;;23.10;99.90;;;;;;5012384;28;20293;-79
2021/09/01 13:19:57;;;;;;;3.90;3.60;;;23.10;99.90;;;;;;5012437;28;20917;-78
2021/09/01 13:22:23;;;;;;;4.93;4.47;;;23.20;99.90;;;;;;5012517;28;20198;-79
2021/09/01 13:24:49;;;;;;;9.00;7.00;;;23.50;99.90;;;;;;5012702;28;20185;-79
2021/09/01 13:27:14;;;;;;;11.00;7.10;;;23.50;99.90;;;;;;5013306;28;20417;-79
2021/09/01 13:29:40;;;;;;;6.10;5.13;;;23.50;99.90;;;;;;5013590;28;20221;-79
2021/09/01 13:32:06;;;;;;;9.77;8.77;;;23.40;99.90;;;;;;5012113;28;20214;-79
2021/09/01 13:34:32;;;;;;;7.60;6.23;;;23.30;99.90;;;;;;5012287;28;20209;-77
2021/09/01 13:36:57;;;;;;;10.70;6.53;;;22.90;99.90;;;;;;4994658;28;20281;-78
2021/09/01 13:39:23;;;;;;;4.20;3.90;;;22.70;99.90;;;;;;5012368;28;20200;-78
2021/09/01 13:41:48;;;;;;;4.80;4.40;;;22.30;99.90;;;;;;5012136;28;20198;-80
2021/09/01 13:44:14;;;;;;;10.37;4.40;;;22.10;99.90;;;;;;5012176;28;20250;-78
2021/09/01 13:46:40;;;;;;;4.13;3.83;;;22.00;99.90;;;;;;5012365;28;20174;-79
2021/09/01 13:49:06;;;;;;;6.33;3.90;;;21.90;99.90;;;;;;5012466;28;20460;-76
2021/09/01 13:51:32;;;;;;;52.50;37.60;;;22.00;99.90;;;;;;5013318;28;20195;-78
2021/09/01 13:54:01;;;;;;;11.37;9.63;;;22.20;99.90;;;;;;5016364;28;20475;-78
2021/09/01 13:56:28;;;;;;;4.77;4.30;;;22.30;99.90;;;;;;5016431;28;20523;-78
2021/09/01 13:58:54;;;;;;;4.93;4.30;;;22.40;99.90;;;;;;5017166;28;20877;-76
2021/09/01 14:01:20;;;;;;;5.43;4.83;;;22.60;99.90;;;;;;5017780;28;20561;-78
2021/09/01 14:03:47;;;;;;;3.77;3.50;;;22.70;99.90;;;;;;5019748;28;20201;-80
2021/09/01 14:06:13;;;;;;;8.30;6.80;;;22.90;99.90;;;;;;5017999;28;20779;-76
2021/09/01 14:08:39;;;;;;;4.83;4.43;;;23.00;99.90;;;;;;5018640;28;20413;-77
2021/09/01 14:11:05;;;;;;;10.33;6.90;;;23.00;99.90;;;;;;5018204;28;20445;-80
2021/09/01 14:13:31;;;;;;;7.50;5.50;;;22.80;99.90;;;;;;5016523;28;20170;-80
2021/09/01 14:15:57;;;;;;;4.20;3.90;;;22.60;99.90;;;;;;4999430;28;20469;-76
2021/09/01 14:18:23;;;;;;;7.00;4.60;;;22.30;99.90;;;;;;5016339;28;20413;-78
2021/09/01 14:20:49;;;;;;;8.70;4.73;;;22.00;99.90;;;;;;5016131;28;20195;-79
2021/09/01 14:23:15;;;;;;;4.90;3.80;;;21.70;99.90;;;;;;5016677;28;20420;-77
2021/09/01 14:25:41;;;;;;;5.40;4.90;;;21.60;99.90;;;;;;5016124;28;20433;-80
2021/09/01 14:28:07;;;;;;;4.23;3.83;;;21.60;99.90;;;;;;5016627;28;21128;-80
2021/09/01 14:30:32;;;;;;;4.60;4.20;;;21.60;99.90;;;;;;5017016;28;20285;-79
2021/09/01 14:32:58;;;;;;;19.50;5.80;;;21.70;99.90;;;;;;5016917;28;20203;-80
2021/09/01 14:35:24;;;;;;;3.93;3.50;;;21.70;99.90;;;;;;5016359;28;20206;-81
2021/09/01 14:37:50;;;;;;;5.90;4.63;;;21.80;99.90;;;;;;5016623;28;20696;-80
2021/09/01 14:40:15;;;;;;;4.03;3.70;;;22.00;99.90;;;;;;5016508;28;20178;-80
2021/09/01 14:42:41;;;;;;;4.37;3.43;;;22.10;99.90;;;;;;5016870;28;20545;-80
2021/09/01 14:45:08;;;;;;;3.73;3.27;;;22.10;99.90;;;;;;5016559;28;20190;-79
2021/09/01 14:47:34;;;;;;;8.43;7.33;;;22.20;99.90;;;;;;5015649;28;20182;-80
2021/09/01 14:50:00;;;;;;;4.70;3.83;;;22.20;99.90;;;;;;5015525;28;20866;-80
2021/09/01 14:52:25;;;;;;;5.67;4.73;;;22.10;99.90;;;;;;5016192;28;20226;-80
2021/09/01 14:54:51;;;;;;;4.20;3.80;;;22.10;99.90;;;;;;5015620;28;20194;-79
2021/09/01 14:57:16;;;;;;;3.60;3.40;;;21.80;99.90;;;;;;5015079;28;20185;-79
2021/09/01 14:59:42;;;;;;;3.90;3.57;;;21.60;99.90;;;;;;5016269;28;20179;-80
2021/09/01 15:02:08;;;;;;;4.20;3.90;;;21.50;99.90;;;;;;4998409;28;20619;-81
2021/09/01 15:04:38;;;;;;;5.70;3.90;;;21.50;99.90;;;;;;5016045;28;20422;-80
2021/09/01 15:07:04;;;;;;;5.00;3.97;;;21.50;99.90;;;;;;5016675;28;20264;-80
2021/09/01 15:09:29;;;;;;;5.00;3.60;;;21.50;99.90;;;;;;5016476;28;20409;-80
2021/09/01 15:11:56;;;;;;;3.97;3.67;;;21.40;99.90;;;;;;5016048;28;20442;-81
2021/09/01 15:14:22;;;;;;;3.80;3.60;;;21.40;99.90;;;;;;5016111;28;20187;-80
2021/09/01 15:16:48;;;;;;;3.77;3.47;;;21.40;99.90;;;;;;5016828;28;20414;-80
2021/09/01 15:19:13;;;;;;;5.60;3.40;;;21.40;99.90;;;;;;5016060;28;20181;-80
2021/09/01 15:21:39;;;;;;;4.37;3.70;;;21.40;99.90;;;;;;5015958;28;20281;-80
2021/09/01 15:24:06;;;;;;;4.10;3.80;;;21.40;99.90;;;;;;5015444;28;20257;-78
2021/09/01 15:26:31;;;;;;;7.90;3.90;;;21.50;99.90;;;;;;5015113;28;20178;-81
2021/09/01 15:28:57;;;;;;;7.30;4.23;;;21.60;99.90;;;;;;5015481;28;20486;-79
2021/09/01 15:31:23;;;;;;;4.33;3.90;;;21.60;99.90;;;;;;5015262;28;20226;-78
2021/09/01 15:33:49;;;;;;;4.47;3.67;;;21.60;99.90;;;;;;5015119;28;20206;-79
2021/09/01 15:36:15;;;;;;;3.80;3.50;;;21.60;99.90;;;;;;5014826;28;20881;-79
2021/09/01 15:38:41;;;;;;;4.30;3.40;;;21.50;99.90;;;;;;5015173;28;20651;-79
2021/09/01 15:41:07;;;;;;;4.27;3.53;;;21.40;99.90;;;;;;5014939;28;20365;-80
2021/09/01 15:43:35;;;;;;;4.20;3.90;;;21.30;99.90;;;;;;4997760;28;20418;-80
2021/09/01 15:46:06;;;;;;;5.57;4.30;;;21.20;99.90;;;;;;4996714;28;20209;-79
2021/09/01 15:49:02;;;;;;;4.30;3.90;;;21.20;99.90;;;;;;5014942;28;20425;-78
2021/09/01 15:51:33;;;;;;;4.03;3.67;;;21.30;99.90;;;;;;5014663;28;20472;-79
2021/09/01 15:54:04;;;;;;;4.37;3.97;;;21.40;99.90;;;;;;5014476;28;20421;-77
2021/09/01 15:56:31;;;;;;;4.67;4.27;;;21.40;99.90;;;;;;5014960;28;20457;-80
2021/09/01 15:58:57;;;;;;;4.87;4.37;;;21.40;99.90;;;;;;5015605;28;20417;-80
2021/09/01 16:01:24;;;;;;;5.10;4.60;;;21.40;99.90;;;;;;5015525;28;20437;-80
2021/09/01 16:03:51;;;;;;;4.13;3.73;;;21.40;99.90;;;;;;5015005;28;20476;-80
2021/09/01 16:06:18;;;;;;;4.20;3.60;;;21.40;99.90;;;;;;5014687;28;20417;-80
2021/09/01 16:08:45;;;;;;;3.87;3.50;;;21.40;99.90;;;;;;5015427;28;20512;-80
2021/09/01 16:11:15;;;;;;;5.13;4.50;;;21.40;99.90;;;;;;5014096;28;20961;-80
2021/09/01 16:13:51;;;;;;;8.10;4.30;;;21.40;99.90;;;;;;4996994;28;20456;-79
2021/09/01 16:16:27;;;;;;;4.03;3.73;;;21.30;99.90;;;;;;5013660;28;20460;-80
2021/09/01 16:19:05;;;;;;;5.90;4.10;;;21.30;99.90;;;;;;5014611;28;20412;-80
2021/09/01 16:21:33;;;;;;;3.60;3.40;;;21.30;99.90;;;;;;5014288;28;20433;-80
2021/09/01 16:24:01;;;;;;;7.70;6.50;;;21.20;99.90;;;;;;5014035;28;20496;-80
2021/09/01 16:26:33;;;;;;;6.60;4.50;;;21.20;99.90;;;;;;5013920;28;20921;-80
2021/09/01 16:29:02;;;;;;;3.90;3.60;;;21.10;99.90;;;;;;5014096;28;20898;-80
2021/09/01 16:31:27;;;;;;;3.57;3.33;;;21.00;99.90;;;;;;5013460;28;20464;-79
2021/09/01 16:33:57;;;;;;;4.17;3.80;;;20.80;99.90;;;;;;4996284;28;20425;-79
2021/09/01 16:36:25;;;;;;;5.20;3.90;;;20.70;99.90;;;;;;5014347;28;20523;-79
2021/09/01 16:38:52;;;;;;;4.50;4.10;;;20.70;99.90;;;;;;5013591;28;20792;-80
2021/09/01 16:41:36;;;;;;;3.47;3.23;;;20.70;99.90;;;;;;5014230;28;20433;-80
2021/09/01 16:44:02;;;;;;;4.23;3.87;;;20.60;99.90;;;;;;5013875;28;20424;-80
2021/09/01 16:46:28;;;;;;;4.17;3.77;;;20.50;99.90;;;;;;4996100;28;20422;-80
2021/09/01 16:48:55;;;;;;;4.53;3.60;;;20.50;99.90;;;;;;5014753;28;20417;-80
2021/09/01 16:51:23;;;;;;;5.30;4.13;;;20.40;99.90;;;;;;5014266;28;20245;-80
2021/09/01 16:53:53;;;;;;;4.87;4.43;;;20.30;99.90;;;;;;5014456;28;20417;-80
2021/09/01 16:56:25;;;;;;;4.63;4.23;;;20.20;99.90;;;;;;5014244;28;20476;-79
2021/09/01 16:59:04;;;;;;;6.50;3.70;;;20.20;99.90;;;;;;5013481;28;20417;-79
2021/09/01 17:01:30;;;;;;;4.40;4.00;;;20.20;99.90;;;;;;4995697;28;20444;-79
2021/09/01 17:04:00;;;;;;;6.63;4.77;;;20.20;99.90;;;;;;5013221;28;20421;-79
2021/09/01 17:06:38;;;;;;;4.90;3.47;;;20.20;99.90;;;;;;5013870;28;20846;-79
2021/09/01 17:09:07;;;;;;;4.80;3.83;;;20.20;99.90;;;;;;5012687;28;20479;-79
2021/09/01 17:11:32;;;;;;;9.30;4.23;;;20.10;99.90;;;;;;5012768;28;20441;-79
2021/09/01 17:13:58;;;;;;;5.10;4.57;;;20.10;99.90;;;;;;5012984;28;20416;-79
2021/09/01 17:16:24;;;;;;;4.77;4.17;;;20.10;99.90;;;;;;5012691;28;20606;-79